Time;durP1;ratioP1;P1;durP2;ratioP2;P2;SDS_P1;SDS_P2;PMS_P1;PMS_P2;Temp;Humidity;BMP_temperature;BMP_pressure;BME280_temperature;BME280_humidity;BME280_pressure;Samples;Min_cycle;Max_cycle;Signal;HPM_P1;HPM_P2
2021/08/22 00:01:10;;;;;;;22.40;12.90;;;;;;;17.36;62.35;99354.55;234195;1198;138751;-66
2021/08/22 00:06:13;;;;;;;23.50;13.70;;;;;;;17.32;62.40;99350.27;234289;1198;138681;-64
2021/08/22 00:11:16;;;;;;;22.40;12.70;;;;;;;17.26;62.47;99349.66;234109;1198;139868;-67
2021/08/22 00:16:19;;;;;;;20.20;12.20;;;;;;;17.22;62.50;99346.40;234080;1198;139544;-65
2021/08/22 00:21:22;;;;;;;21.50;12.10;;;;;;;17.20;62.49;99349.02;233833;1198;139409;-64
2021/08/22 00:26:26;;;;;;;24.40;13.60;;;;;;;17.16;62.72;99345.33;234121;1198;138675;-66
2021/08/22 00:31:29;;;;;;;20.40;12.60;;;;;;;17.15;62.60;99343.27;234094;1198;138381;-65
2021/08/22 00:36:32;;;;;;;22.30;12.50;;;;;;;17.09;62.62;99343.03;233812;1201;138565;-66
2021/08/22 00:41:35;;;;;;;21.50;12.40;;;;;;;17.03;62.63;99346.54;233853;1199;138526;-64
2021/08/22 00:46:39;;;;;;;20.90;11.70;;;;;;;16.95;62.62;99344.34;234144;1198;138639;-66
2021/08/22 00:51:43;;;;;;;21.20;10.80;;;;;;;16.87;62.72;99343.79;234059;1198;139242;-66
2021/08/22 00:56:45;;;;;;;22.80;12.50;;;;;;;16.82;62.72;99341.17;234016;1198;138919;-64
2021/08/22 01:01:51;;;;;;;21.00;12.20;;;;;;;16.81;62.94;99339.26;234107;1198;139835;-64
2021/08/22 01:06:57;;;;;;;22.10;12.10;;;;;;;16.76;62.91;99333.59;234148;1198;138750;-68
2021/08/22 01:12:06;;;;;;;21.10;12.00;;;;;;;16.69;63.01;99330.73;234085;1198;139192;-66
2021/08/22 01:17:11;;;;;;;21.80;12.70;;;;;;;16.63;63.12;99329.44;234033;1198;138946;-66
2021/08/22 01:22:18;;;;;;;19.60;11.20;;;;;;;16.60;63.14;99331.15;234107;1198;139194;-66
2021/08/22 01:27:22;;;;;;;18.60;11.10;;;;;;;16.56;63.27;99331.08;234114;1199;139518;-65
2021/08/22 01:32:40;;;;;;;16.80;11.70;;;;;;;16.55;63.32;99326.70;234097;1198;138764;-64
2021/08/22 01:37:45;;;;;;;25.60;12.70;;;;;;;16.53;63.61;99324.71;233477;1198;139231;-64
2021/08/22 01:42:49;;;;;;;22.10;12.40;;;;;;;16.51;63.56;99327.36;234178;1199;138842;-66
2021/08/22 01:47:53;;;;;;;;;;;;;;;16.47;63.59;99324.10;234130;1198;139145;-64
2021/08/22 01:53:02;;;;;;;17.70;11.10;;;;;;;16.41;63.60;99325.88;233480;1198;124865;-65
2021/08/22 01:58:06;;;;;;;18.80;11.30;;;;;;;16.38;63.84;99326.09;234084;1199;138990;-63
2021/08/22 02:03:21;;;;;;;15.80;11.20;;;;;;;16.36;63.75;99325.55;233998;1199;139902;-63
2021/08/22 02:08:31;;;;;;;21.40;11.10;;;;;;;16.37;64.01;99323.71;233867;1198;139144;-65
2021/08/22 02:13:39;;;;;;;21.00;11.50;;;;;;;16.41;64.14;99328.90;234011;1199;139084;-69
2021/08/22 02:18:44;;;;;;;16.00;11.00;;;;;;;16.40;64.16;99327.75;234040;1198;138957;-64
2021/08/22 02:23:52;;;;;;;;;;;;;;;16.38;64.31;99327.00;234056;1198;138906;-64
2021/08/22 02:28:56;;;;;;;19.90;12.40;;;;;;;16.32;64.25;99321.39;234161;1198;124386;-65
2021/08/22 02:34:00;;;;;;;15.20;10.80;;;;;;;16.27;64.12;99320.55;234016;1198;138326;-65
2021/08/22 02:39:03;;;;;;;19.70;11.40;;;;;;;16.24;64.38;99315.77;233479;1198;139253;-66
2021/08/22 02:44:06;;;;;;;19.40;10.90;;;;;;;16.24;64.41;99318.45;234143;1198;139306;-63
2021/08/22 02:49:10;;;;;;;17.40;10.40;;;;;;;16.27;64.50;99315.19;234222;1198;139125;-67
2021/08/22 02:54:13;;;;;;;22.00;11.20;;;;;;;16.25;64.37;99313.00;234003;1198;137984;-64
2021/08/22 02:59:16;;;;;;;21.10;10.80;;;;;;;16.19;64.19;99312.06;233994;1199;138488;-63
2021/08/22 03:04:19;;;;;;;16.30;9.50;;;;;;;16.11;64.22;99308.97;234069;1198;138934;-64
2021/08/22 03:09:22;;;;;;;16.30;10.40;;;;;;;16.08;64.18;99302.07;234158;1198;139127;-65
2021/08/22 03:14:26;;;;;;;20.90;11.20;;;;;;;16.07;64.53;99299.13;234146;1198;139587;-64
2021/08/22 03:19:29;;;;;;;21.10;11.20;;;;;;;16.05;64.27;99298.50;234164;1198;139080;-69
2021/08/22 03:24:32;;;;;;;20.10;11.20;;;;;;;16.03;64.33;99305.86;233337;1199;138608;-64
2021/08/22 03:29:35;;;;;;;16.50;10.20;;;;;;;15.97;64.35;99302.95;234242;1197;139162;-66
2021/08/22 03:34:38;;;;;;;17.30;10.90;;;;;;;15.88;64.29;99300.09;234168;1198;138631;-65
2021/08/22 03:39:41;;;;;;;17.20;10.10;;;;;;;15.81;64.34;99298.31;234141;1198;139554;-64
2021/08/22 03:44:45;;;;;;;17.10;10.60;;;;;;;15.74;64.32;99299.00;234020;1198;140572;-64
2021/08/22 03:49:48;;;;;;;17.00;10.30;;;;;;;15.71;64.43;99295.48;234133;1199;139051;-65
2021/08/22 03:54:51;;;;;;;19.90;10.50;;;;;;;15.70;64.64;99298.47;234249;1195;139306;-64
2021/08/22 03:59:54;;;;;;;17.10;10.70;;;;;;;15.68;64.62;99302.34;234156;1198;139035;-66
2021/08/22 04:05:00;;;;;;;20.30;11.90;;;;;;;15.69;64.87;99298.00;234030;1198;138876;-64
2021/08/22 04:10:05;;;;;;;18.20;10.90;;;;;;;15.67;64.73;99301.56;234184;1198;138325;-65
2021/08/22 04:15:09;;;;;;;19.90;11.10;;;;;;;15.68;65.03;99298.98;234009;1199;139863;-64
2021/08/22 04:20:13;;;;;;;18.80;10.60;;;;;;;15.73;65.26;99301.50;234057;1198;138535;-65
2021/08/22 04:25:16;;;;;;;17.60;11.70;;;;;;;15.75;65.19;99299.47;234268;1198;138714;-66
2021/08/22 04:30:19;;;;;;;20.40;11.20;;;;;;;15.77;65.23;99300.39;234070;1199;139212;-65
2021/08/22 04:35:23;;;;;;;18.10;11.60;;;;;;;15.78;65.26;99301.93;234156;1198;140679;-66
2021/08/22 04:40:26;;;;;;;16.70;10.40;;;;;;;15.78;65.44;99304.98;233924;1199;138782;-66
2021/08/22 04:45:29;;;;;;;16.40;10.40;;;;;;;15.81;65.59;99304.39;234089;1198;152100;-68
2021/08/22 04:50:32;;;;;;;15.80;11.40;;;;;;;15.86;65.54;99304.88;234128;1199;139785;-65
2021/08/22 04:55:36;;;;;;;18.70;12.10;;;;;;;15.94;65.91;99306.35;233842;1198;138329;-63
2021/08/22 05:00:39;;;;;;;17.80;12.30;;;;;;;16.02;65.64;99303.92;234167;1199;138480;-64
2021/08/22 05:05:42;;;;;;;17.70;13.30;;;;;;;16.10;65.78;99304.39;233916;1199;138026;-65
2021/08/22 05:10:45;;;;;;;18.40;13.30;;;;;;;16.18;65.79;99300.55;234012;1198;138458;-64
2021/08/22 05:15:50;;;;;;;19.90;12.90;;;;;;;16.27;66.06;99301.58;233950;1198;139389;-65
2021/08/22 05:20:54;;;;;;;17.40;13.80;;;;;;;16.39;66.22;99299.38;233860;1198;139036;-67
2021/08/22 05:25:57;;;;;;;22.80;13.70;;;;;;;16.52;66.07;99299.20;233894;1198;138861;-64
2021/08/22 05:31:00;;;;;;;22.00;15.70;;;;;;;16.63;66.14;99297.76;234020;1199;138428;-66
2021/08/22 05:36:20;;;;;;;24.50;16.20;;;;;;;16.71;66.26;99297.63;234168;1198;138383;-67
2021/08/22 05:41:23;;;;;;;20.30;14.20;;;;;;;16.82;66.27;99300.31;234011;1198;138262;-65
2021/08/22 05:46:27;;;;;;;23.60;13.30;;;;;;;16.93;66.11;99297.09;234014;1199;139467;-65
2021/08/22 05:51:30;;;;;;;19.00;13.60;;;;;;;17.02;66.30;99289.78;234039;1199;138870;-69
2021/08/22 05:56:33;;;;;;;21.90;14.70;;;;;;;17.17;66.15;99293.73;233829;1199;138960;-65
2021/08/22 06:01:36;;;;;;;18.70;14.30;;;;;;;17.25;66.17;99288.41;234067;1199;138531;-65
2021/08/22 06:06:40;;;;;;;20.20;15.90;;;;;;;17.36;66.23;99291.64;234061;1198;138959;-67
2021/08/22 06:11:44;;;;;;;18.50;14.40;;;;;;;17.41;66.22;99286.87;234099;1198;138345;-65
2021/08/22 06:16:47;;;;;;;18.00;13.20;;;;;;;17.51;66.19;99285.48;234051;1199;138760;-65
2021/08/22 06:21:50;;;;;;;19.60;14.60;;;;;;;17.63;66.27;99289.44;234116;1199;139505;-64
2021/08/22 06:26:53;;;;;;;22.00;14.80;;;;;;;17.81;66.32;99282.84;234078;1198;138364;-64
2021/08/22 06:31:56;;;;;;;19.90;14.80;;;;;;;17.95;66.33;99287.00;234214;1198;140759;-64
2021/08/22 06:36:59;;;;;;;21.90;15.80;;;;;;;18.05;66.15;99282.03;234396;1198;138564;-64
2021/08/22 06:42:02;;;;;;;21.60;14.40;;;;;;;18.09;66.06;99275.52;234256;1197;138182;-63
2021/08/22 06:47:07;;;;;;;23.40;15.70;;;;;;;18.23;66.20;99275.90;234136;1197;139322;-63
2021/08/22 06:52:13;;;;;;;30.10;21.90;;;;;;;18.40;66.27;99280.48;234265;1198;139438;-63
2021/08/22 06:57:17;;;;;;;41.00;27.40;;;;;;;18.60;66.22;99276.30;234186;1198;138806;-66
2021/08/22 07:02:20;;;;;;;40.40;25.20;;;;;;;18.78;65.96;99269.86;234273;1198;138558;-62
2021/08/22 07:07:23;;;;;;;37.60;25.10;;;;;;;18.88;65.73;99260.46;234210;1198;138477;-63
2021/08/22 07:12:26;;;;;;;39.40;23.00;;;;;;;18.96;65.65;99264.72;234258;1198;138732;-64
2021/08/22 07:17:29;;;;;;;32.80;22.60;;;;;;;19.04;65.63;99265.48;234132;1198;138986;-62
2021/08/22 07:22:33;;;;;;;36.90;24.30;;;;;;;19.16;65.53;99266.84;234252;1198;139531;-64
2021/08/22 07:27:36;;;;;;;34.20;22.40;;;;;;;19.29;65.55;99267.91;234065;1198;139084;-64
2021/08/22 07:32:40;;;;;;;44.40;24.30;;;;;;;19.40;65.42;99264.73;234263;1198;138375;-64
2021/08/22 07:37:43;;;;;;;39.00;23.40;;;;;;;19.51;65.28;99266.92;234114;1198;138430;-64
2021/08/22 07:42:46;;;;;;;36.10;21.50;;;;;;;19.58;65.06;99267.98;234223;1199;138680;-62
2021/08/22 07:47:49;;;;;;;33.40;19.50;;;;;;;19.67;64.98;99269.06;234152;1198;140212;-65
2021/08/22 07:52:52;;;;;;;34.80;18.60;;;;;;;19.73;64.91;99258.00;234053;1199;139466;-63
2021/08/22 07:57:57;;;;;;;30.40;19.10;;;;;;;19.88;64.78;99260.14;234116;1198;138559;-63
2021/08/22 08:02:59;;;;;;;19.50;13.70;;;;;;;20.04;64.70;99260.60;233881;1200;138480;-62
2021/08/22 08:08:04;;;;;;;21.10;11.70;;;;;;;20.16;64.59;99258.17;234088;1199;138320;-63
2021/08/22 08:13:07;;;;;;;16.70;10.80;;;;;;;20.28;64.34;99263.05;234228;1198;139543;-64
2021/08/22 08:18:13;;;;;;;13.10;10.00;;;;;;;20.37;64.22;99257.16;234144;1198;138390;-64
2021/08/22 08:23:16;;;;;;;18.00;9.80;;;;;;;20.48;64.03;99265.27;233891;1198;138917;-62
2021/08/22 08:28:19;;;;;;;13.10;7.20;;;;;;;20.62;63.88;99264.80;233990;1200;139299;-61
2021/08/22 08:33:22;;;;;;;14.20;8.50;;;;;;;20.79;63.53;99260.13;233922;1199;139163;-61
2021/08/22 08:38:25;;;;;;;14.00;8.30;;;;;;;21.01;63.71;99261.88;233962;1198;138437;-62
2021/08/22 08:43:29;;;;;;;10.50;7.60;;;;;;;21.20;63.30;99259.40;234194;1199;138158;-62
2021/08/22 08:49:11;;;;;;;9.40;7.20;;;;;;;21.33;62.95;99263.46;234048;1200;138093;-65
2021/08/22 08:54:19;;;;;;;10.80;7.50;;;;;;;21.45;62.65;99262.83;234217;1198;138078;-67
2021/08/22 08:59:22;;;;;;;9.70;8.10;;;;;;;21.54;62.36;99266.09;234165;1198;138452;-65
2021/08/22 09:04:26;;;;;;;8.20;7.30;;;;;;;21.61;62.03;99263.18;234077;1198;138059;-66
2021/08/22 09:10:06;;;;;;;8.00;7.00;;;;;;;21.68;61.82;99260.24;234105;1198;138279;-65
2021/08/22 09:15:34;;;;;;;7.60;6.50;;;;;;;21.79;61.69;99253.33;234064;1198;138067;-65
2021/08/22 09:21:02;;;;;;;8.30;6.90;;;;;;;21.92;61.53;99248.88;233202;1201;138385;-64
2021/08/22 09:26:42;;;;;;;9.60;7.30;;;;;;;22.09;61.57;99243.78;233667;1198;138472;-68
2021/08/22 09:32:23;;;;;;;8.90;7.40;;;;;;;22.27;61.19;99238.62;234102;1200;138143;-66
2021/08/22 09:37:28;;;;;;;7.70;6.90;;;;;;;22.39;60.92;99239.25;234123;1200;139439;-65
2021/08/22 09:43:05;;;;;;;8.10;7.00;;;;;;;22.51;60.63;99241.99;234087;1200;138160;-66
2021/08/22 09:48:46;;;;;;;10.90;7.00;;;;;;;22.61;60.51;99231.66;234079;1198;138799;-66
2021/08/22 09:54:07;;;;;;;8.40;7.00;;;;;;;22.74;60.02;99236.50;234028;1199;139067;-62
2021/08/22 09:59:38;;;;;;;8.30;6.70;;;;;;;22.80;60.04;99241.19;234086;1198;139636;-63
2021/08/22 10:05:07;;;;;;;9.40;6.40;;;;;;;22.91;59.91;99238.15;233954;1198;139086;-64
2021/08/22 10:10:14;;;;;;;9.40;7.00;;;;;;;23.02;59.75;99227.55;233896;1198;138457;-63
2021/08/22 10:15:18;;;;;;;7.50;6.70;;;;;;;23.15;59.50;99219.98;234004;1198;138246;-65
2021/08/22 10:20:39;;;;;;;7.00;5.70;;;;;;;23.27;59.33;99206.52;234057;1198;138458;-63
2021/08/22 10:25:52;;;;;;;8.20;5.90;;;;;;;23.40;58.49;99207.86;233998;1200;138450;-61
2021/08/22 10:30:55;;;;;;;6.50;5.40;;;;;;;23.55;58.11;99196.43;234117;1201;138958;-65
2021/08/22 10:36:30;;;;;;;14.00;6.20;;;;;;;23.71;58.08;99193.14;234121;1198;138975;-63
2021/08/22 10:41:37;;;;;;;7.30;5.70;;;;;;;23.84;57.66;99192.27;234040;1198;137996;-64
2021/08/22 10:46:47;;;;;;;7.70;5.20;;;;;;;23.95;57.31;99189.16;234107;1199;138203;-63
2021/08/22 10:52:18;;;;;;;8.00;5.40;;;;;;;24.08;56.94;99190.23;234038;1198;138226;-61
2021/08/22 10:57:44;;;;;;;6.10;4.90;;;;;;;24.25;56.69;99190.91;234266;1198;138445;-63
2021/08/22 11:02:47;;;;;;;6.90;4.70;;;;;;;24.41;56.43;99187.40;234260;1198;138319;-63
2021/08/22 11:07:53;;;;;;;7.10;4.70;;;;;;;24.55;55.51;99186.73;234159;1198;138370;-61
2021/08/22 11:12:56;;;;;;;6.90;5.20;;;;;;;24.66;54.73;99183.46;234281;1198;138287;-62
2021/08/22 11:18:04;;;;;;;7.10;4.30;;;;;;;24.80;54.32;99188.77;234192;1198;138128;-63
2021/08/22 11:23:16;;;;;;;5.70;4.80;;;;;;;24.96;53.56;99181.27;234176;1198;138828;-62
2021/08/22 11:28:19;;;;;;;5.10;4.60;;;;;;;25.12;53.19;99183.20;234201;1198;138674;-62
2021/08/22 11:33:22;;;;;;;5.80;5.00;;;;;;;25.23;53.24;99184.20;233935;1198;138810;-63
2021/08/22 11:38:26;;;;;;;5.40;4.40;;;;;;;25.32;52.80;99178.59;233935;1195;138163;-63
2021/08/22 11:43:54;;;;;;;8.00;4.60;;;;;;;25.28;52.47;99180.24;233785;1198;138668;-61
2021/08/22 11:48:57;;;;;;;5.40;4.50;;;;;;;25.13;51.62;99182.09;234174;1198;139956;-61
2021/08/22 11:54:01;;;;;;;7.10;4.80;;;;;;;25.14;52.10;99185.00;234069;1198;138391;-64
2021/08/22 11:59:25;;;;;;;7.20;5.70;;;;;;;25.12;51.94;99179.80;234157;1198;139079;-60
2021/08/22 12:04:28;;;;;;;5.10;4.50;;;;;;;24.97;51.30;99177.34;234095;1198;138160;-61
2021/08/22 12:09:31;;;;;;;5.20;4.70;;;;;;;24.83;50.91;99174.54;234206;1198;138405;-61
2021/08/22 12:14:34;;;;;;;5.60;4.40;;;;;;;24.74;51.13;99173.17;233988;1199;139016;-62
2021/08/22 12:19:41;;;;;;;5.70;4.70;;;;;;;24.69;50.87;99165.96;234164;1198;138466;-61
2021/08/22 12:24:46;;;;;;;6.10;4.20;;;;;;;24.63;51.22;99160.71;234080;1198;138823;-62
2021/08/22 12:30:05;;;;;;;9.40;4.60;;;;;;;24.58;51.10;99157.32;234023;1200;138608;-62
2021/08/22 12:35:09;;;;;;;5.80;4.20;;;;;;;24.63;51.07;99155.81;234051;1198;138750;-62
2021/08/22 12:40:20;;;;;;;3.80;3.40;;;;;;;24.70;51.20;99151.58;233976;1201;138735;-63
2021/08/22 12:45:23;;;;;;;3.80;3.20;;;;;;;24.81;50.54;99144.84;234089;1198;138845;-63
2021/08/22 12:50:27;;;;;;;3.50;3.10;;;;;;;24.94;50.29;99138.70;234128;1199;138711;-63
2021/08/22 12:55:30;;;;;;;3.30;2.70;;;;;;;25.23;49.57;99133.70;234179;1198;138427;-63
2021/08/22 13:00:33;;;;;;;4.90;3.10;;;;;;;25.53;49.48;99126.48;234026;1199;138876;-62
2021/08/22 13:05:36;;;;;;;3.50;3.20;;;;;;;25.83;49.38;99121.13;233896;1199;138769;-62
2021/08/22 13:10:39;;;;;;;6.70;3.30;;;;;;;25.94;49.19;99116.63;233831;1199;138711;-62
2021/08/22 13:15:42;;;;;;;4.20;3.20;;;;;;;25.88;48.84;99112.10;234105;1198;138958;-62
2021/08/22 13:20:45;;;;;;;3.70;2.60;;;;;;;25.79;48.44;99107.61;234130;1198;138794;-62
2021/08/22 13:25:52;;;;;;;3.30;2.90;;;;;;;25.70;47.59;99108.52;234179;1198;138815;-62
2021/08/22 13:30:55;;;;;;;4.00;2.60;;;;;;;25.64;47.42;99105.61;234106;1198;138424;-63
2021/08/22 13:35:59;;;;;;;4.80;2.60;;;;;;;25.65;46.85;99103.15;234148;1198;138656;-62
2021/08/22 13:41:07;;;;;;;3.30;2.40;;;;;;;25.87;46.88;99105.11;234080;1198;138599;-64
2021/08/22 13:46:29;;;;;;;4.00;2.80;;;;;;;26.28;46.58;99097.63;233428;1198;138689;-62
2021/08/22 13:51:33;;;;;;;3.10;2.40;;;;;;;26.59;46.33;99092.28;234293;1198;138287;-62
2021/08/22 13:56:36;;;;;;;3.70;3.10;;;;;;;26.98;46.05;99087.34;234156;1198;138443;-62
2021/08/22 14:01:39;;;;;;;3.30;2.90;;;;;;;27.26;45.91;99086.27;234260;1198;138145;-62
2021/08/22 14:06:42;;;;;;;5.40;2.90;;;;;;;27.48;45.18;99082.70;234151;1196;137900;-62
2021/08/22 14:11:45;;;;;;;5.20;3.00;;;;;;;27.75;44.86;99078.73;234104;1198;138617;-62
2021/08/22 14:16:48;;;;;;;3.00;2.70;;;;;;;27.93;44.57;99068.08;234092;1198;137958;-63
2021/08/22 14:21:52;;;;;;;3.00;2.40;;;;;;;28.07;43.80;99068.81;234231;1198;138802;-62
2021/08/22 14:26:55;;;;;;;3.00;2.30;;;;;;;28.07;43.26;99063.52;233975;1198;138855;-62
2021/08/22 14:31:58;;;;;;;3.30;2.70;;;;;;;28.06;42.66;99058.85;234271;1198;138612;-62
2021/08/22 14:37:02;;;;;;;3.00;2.30;;;;;;;28.09;42.34;99058.52;234022;1198;138027;-64
2021/08/22 14:42:06;;;;;;;3.50;2.60;;;;;;;27.92;42.00;99049.40;234118;1198;138765;-63
2021/08/22 14:47:09;;;;;;;3.70;2.60;;;;;;;27.63;41.64;99044.30;234032;1198;137999;-63
2021/08/22 14:52:12;;;;;;;3.90;2.50;;;;;;;27.35;41.95;99032.21;234145;1198;138750;-62
2021/08/22 14:57:16;;;;;;;4.00;2.60;;;;;;;27.07;42.51;99031.51;233955;1199;138364;-62
2021/08/22 15:02:19;;;;;;;4.10;3.30;;;;;;;26.84;42.50;99028.91;234311;1198;138024;-62
2021/08/22 15:07:22;;;;;;;6.80;3.00;;;;;;;26.66;42.58;99026.76;234047;1199;137590;-63
2021/08/22 15:12:25;;;;;;;4.70;2.90;;;;;;;26.48;42.39;99024.27;234053;1199;138664;-63
2021/08/22 15:17:28;;;;;;;2.90;2.50;;;;;;;26.34;42.73;99019.35;234021;1199;139417;-62
2021/08/22 15:22:33;;;;;;;4.00;2.70;;;;;;;26.19;42.88;99021.32;234180;1198;138337;-63
2021/08/22 15:27:36;;;;;;;3.00;2.70;;;;;;;26.04;43.02;99027.36;234112;1198;138809;-62
2021/08/22 15:32:40;;;;;;;3.10;2.80;;;;;;;25.93;43.17;99025.35;234162;1198;138040;-64
2021/08/22 15:37:44;;;;;;;3.70;2.90;;;;;;;25.79;43.78;99023.60;233864;1198;138527;-61
2021/08/22 15:42:47;;;;;;;2.60;2.30;;;;;;;25.68;44.12;99021.87;234048;1199;139552;-62
2021/08/22 15:47:51;;;;;;;3.40;2.40;;;;;;;25.60;43.46;99018.30;234066;1199;138716;-63
2021/08/22 15:52:55;;;;;;;2.70;2.40;;;;;;;25.55;43.52;99010.58;234166;1198;138431;-63
2021/08/22 15:57:58;;;;;;;2.70;2.40;;;;;;;25.48;43.62;99005.46;234157;1198;137951;-63
2021/08/22 16:03:02;;;;;;;3.40;2.80;;;;;;;25.39;43.65;99010.46;234158;1198;138238;-64
2021/08/22 16:08:05;;;;;;;3.60;2.80;;;;;;;25.32;43.38;99012.84;233822;1199;138680;-63
2021/08/22 16:13:08;;;;;;;5.90;3.00;;;;;;;25.22;43.50;99011.55;234013;1198;138842;-63
2021/08/22 16:18:11;;;;;;;3.40;2.70;;;;;;;25.14;44.00;99010.27;234162;1198;140413;-63
2021/08/22 16:23:15;;;;;;;5.00;3.10;;;;;;;25.04;44.43;99008.60;233547;1198;138722;-64
2021/08/22 16:28:18;;;;;;;5.20;3.00;;;;;;;24.92;44.39;99004.23;233996;1200;139197;-63
2021/08/22 16:33:21;;;;;;;3.70;2.90;;;;;;;24.81;44.50;99008.72;234152;1198;138644;-63
2021/08/22 16:38:24;;;;;;;3.00;2.60;;;;;;;24.69;44.63;99003.54;234140;1198;138728;-64
2021/08/22 16:43:27;;;;;;;4.40;2.80;;;;;;;24.61;44.92;99006.30;234192;1199;142100;-63
2021/08/22 16:48:30;;;;;;;6.30;3.10;;;;;;;24.52;45.45;99005.98;234008;1200;138331;-63
2021/08/22 16:53:37;;;;;;;5.40;2.90;;;;;;;24.45;45.38;99008.52;234133;1198;138567;-63
2021/08/22 16:58:40;;;;;;;7.90;3.90;;;;;;;24.36;45.53;99010.48;234150;1198;139093;-63
2021/08/22 17:03:43;;;;;;;5.40;3.30;;;;;;;24.25;45.97;99008.09;234154;1198;138812;-63
2021/08/22 17:08:46;;;;;;;8.60;3.80;;;;;;;24.18;46.40;99010.68;234165;1198;138097;-63
2021/08/22 17:13:49;;;;;;;6.80;3.90;;;;;;;24.10;46.97;99006.87;234236;1198;138512;-64
2021/08/22 17:18:52;;;;;;;8.10;4.70;;;;;;;24.01;47.05;99011.16;233977;1199;138904;-63
2021/08/22 17:23:55;;;;;;;6.40;4.40;;;;;;;23.93;47.66;99009.96;234089;1198;138343;-63
2021/08/22 17:28:59;;;;;;;8.10;4.80;;;;;;;23.86;47.95;99020.04;233848;1198;138339;-64
2021/08/22 17:34:04;;;;;;;9.60;4.10;;;;;;;23.79;48.04;99022.46;233707;1198;138668;-63
2021/08/22 17:39:08;;;;;;;8.30;4.00;;;;;;;23.71;48.22;99026.19;233896;1196;138940;-64
2021/08/22 17:44:17;;;;;;;8.90;4.80;;;;;;;23.64;48.54;99034.55;234098;1198;138138;-63
2021/08/22 17:49:31;;;;;;;6.50;4.60;;;;;;;23.58;49.07;99028.54;234042;1198;139746;-64
2021/08/22 17:54:49;;;;;;;7.10;4.20;;;;;;;23.54;49.46;99032.64;234055;1198;139569;-64
2021/08/22 18:00:11;;;;;;;12.10;4.50;;;;;;;23.49;49.93;99029.95;233554;1198;138075;-65
2021/08/22 18:05:15;;;;;;;12.10;4.90;;;;;;;23.43;50.19;99022.52;233917;1200;138713;-63
2021/08/22 18:10:28;;;;;;;7.60;4.70;;;;;;;23.38;50.52;99023.79;233289;1199;138238;-63
2021/08/22 18:15:34;;;;;;;10.90;5.10;;;;;;;23.31;50.75;99024.98;233803;1199;138767;-62
2021/08/22 18:20:39;;;;;;;7.40;5.80;;;;;;;23.24;50.96;99027.21;233885;1200;138682;-63
2021/08/22 18:25:51;;;;;;;9.60;5.30;;;;;;;23.17;51.33;99025.39;234081;1199;138792;-62
2021/08/22 18:31:12;;;;;;;;;;;;;;;23.10;51.75;99031.89;233955;1198;139011;-63
2021/08/22 18:36:21;;;;;;;9.40;5.50;;;;;;;23.02;52.05;99028.66;234153;1198;124766;-62
2021/08/22 18:41:38;;;;;;;8.00;5.10;;;;;;;22.96;52.22;99037.71;233964;1198;138702;-64
2021/08/22 18:47:08;;;;;;;9.10;5.50;;;;;;;22.89;52.33;99045.33;233937;1198;138786;-63
2021/08/22 18:52:17;;;;;;;7.30;5.20;;;;;;;22.82;52.59;99053.56;233948;1199;138224;-63
2021/08/22 18:57:23;;;;;;;8.50;5.40;;;;;;;22.78;52.71;99054.37;234023;1196;139308;-63
2021/08/22 19:02:34;;;;;;;10.20;5.60;;;;;;;22.74;52.97;99054.02;234195;1195;139170;-62
2021/08/22 19:07:37;;;;;;;6.40;5.20;;;;;;;22.73;53.02;99060.36;233869;1199;139080;-63
2021/08/22 19:12:41;;;;;;;5.80;5.10;;;;;;;22.72;53.16;99060.66;234015;1199;138794;-64
2021/08/22 19:17:54;;;;;;;7.30;5.30;;;;;;;22.69;53.25;99050.70;233476;1198;138345;-64
2021/08/22 19:23:04;;;;;;;8.00;5.40;;;;;;;22.63;53.69;99047.19;230043;1198;4681846;-63
2021/08/22 19:28:07;;;;;;;9.70;5.80;;;;;;;22.58;53.83;99048.42;233101;1199;138733;-63
2021/08/22 19:33:24;;;;;;;7.40;5.90;;;;;;;22.54;54.01;99047.06;233947;1196;138577;-63
2021/08/22 19:38:30;;;;;;;8.70;6.10;;;;;;;22.49;54.25;99043.85;234114;1199;138483;-64
2021/08/22 19:43:37;;;;;;;7.80;6.20;;;;;;;22.44;54.40;99044.96;233875;1199;138502;-63
2021/08/22 19:48:43;;;;;;;8.70;6.90;;;;;;;22.39;54.50;99040.30;233961;1199;139598;-64
2021/08/22 19:53:46;;;;;;;9.40;5.90;;;;;;;22.36;54.71;99040.95;234078;1198;140577;-63
2021/08/22 19:58:50;;;;;;;8.30;5.80;;;;;;;22.32;54.86;99037.55;234169;1199;139856;-63
2021/08/22 20:03:55;;;;;;;9.30;6.00;;;;;;;22.30;54.95;99037.36;234127;1199;138770;-63
2021/08/22 20:08:59;;;;;;;8.30;5.50;;;;;;;22.29;54.96;99043.27;233999;1198;138341;-63
2021/08/22 20:14:03;;;;;;;7.00;6.00;;;;;;;22.26;54.99;99037.05;234083;1199;137927;-63
2021/08/22 20:19:06;;;;;;;7.80;5.90;;;;;;;22.22;55.07;99031.46;234075;1199;138626;-63
2021/08/22 20:24:09;;;;;;;6.30;5.00;;;;;;;22.19;55.12;99026.17;234029;1199;138235;-62
2021/08/22 20:29:12;;;;;;;6.90;5.80;;;;;;;22.15;55.24;99024.80;234104;1199;138920;-62
2021/08/22 20:34:16;;;;;;;8.10;6.30;;;;;;;22.13;55.20;99018.96;233899;1199;140161;-61
2021/08/22 20:39:19;;;;;;;11.20;6.00;;;;;;;22.07;55.24;99014.46;234138;1198;138575;-62
2021/08/22 20:44:22;;;;;;;7.90;5.60;;;;;;;22.03;55.37;99011.20;234029;1199;138623;-62
2021/08/22 20:49:25;;;;;;;8.90;5.40;;;;;;;21.97;55.57;99009.61;234032;1200;139960;-62
2021/08/22 20:54:28;;;;;;;7.40;5.00;;;;;;;21.96;55.73;99008.23;234117;1199;138583;-62
2021/08/22 20:59:31;;;;;;;9.40;5.30;;;;;;;22.00;55.94;99004.29;234186;1198;138682;-61
2021/08/22 21:04:34;;;;;;;7.50;5.60;;;;;;;22.12;55.98;99010.94;234106;1198;138584;-62
2021/08/22 21:09:37;;;;;;;8.80;5.40;;;;;;;22.17;55.97;99008.86;234224;1198;138685;-62
2021/08/22 21:14:40;;;;;;;9.10;6.00;;;;;;;22.20;56.08;99004.41;234302;1197;138291;-62
2021/08/22 21:19:43;;;;;;;7.40;5.80;;;;;;;22.19;55.99;99007.57;234306;1198;138588;-62
2021/08/22 21:24:46;;;;;;;6.50;5.70;;;;;;;22.16;56.04;99007.25;234123;1198;139267;-62
2021/08/22 21:29:49;;;;;;;7.20;5.40;;;;;;;22.11;56.11;99005.59;234111;1198;138726;-62
2021/08/22 21:34:52;;;;;;;7.40;5.60;;;;;;;22.05;56.17;98996.34;234102;1198;139086;-62
2021/08/22 21:39:56;;;;;;;6.90;5.60;;;;;;;21.99;56.10;98991.85;234218;1198;138550;-62
2021/08/22 21:44:59;;;;;;;7.30;5.50;;;;;;;21.95;56.12;98995.02;234169;1198;138567;-62
2021/08/22 21:50:03;;;;;;;7.50;5.80;;;;;;;21.90;56.22;98996.54;234195;1199;139562;-62
2021/08/22 21:55:07;;;;;;;10.40;5.50;;;;;;;21.83;56.26;99000.18;234042;1199;138389;-62
2021/08/22 22:00:17;;;;;;;6.70;5.50;;;;;;;21.77;56.28;99005.73;234170;1198;138582;-62
2021/08/22 22:05:21;;;;;;;9.00;5.90;;;;;;;21.71;56.49;99005.93;233348;1198;139136;-62
2021/08/22 22:10:53;;;;;;;8.10;5.50;;;;;;;21.66;56.73;98995.52;233214;1202;138027;-61
2021/08/22 22:15:59;;;;;;;6.20;5.00;;;;;;;21.64;56.82;98994.50;233302;1200;142311;-62
2021/08/22 22:21:30;;;;;;;8.40;5.80;;;;;;;21.66;57.10;98997.81;233630;1198;138527;-63
2021/08/22 22:26:34;;;;;;;8.50;6.00;;;;;;;21.71;57.23;99014.83;234187;1199;139140;-62
2021/08/22 22:31:37;;;;;;;9.90;6.20;;;;;;;21.74;57.31;99028.63;234017;1199;138464;-62
2021/08/22 22:36:40;;;;;;;8.80;6.10;;;;;;;21.67;57.93;99026.46;234170;1198;138732;-62
2021/08/22 22:41:43;;;;;;;10.50;6.10;;;;;;;21.59;58.55;99032.75;233673;1198;144074;-62
2021/08/22 22:46:46;;;;;;;11.20;6.40;;;;;;;21.45;58.86;99034.95;233836;1200;139061;-62
2021/08/22 22:51:49;;;;;;;7.60;5.80;;;;;;;21.32;59.49;99042.30;233766;1198;139222;-63
2021/08/22 22:56:52;;;;;;;8.80;6.60;;;;;;;21.23;59.94;99035.65;233761;1199;138740;-63
2021/08/22 23:01:55;;;;;;;10.30;7.00;;;;;;;21.18;60.62;99023.92;233726;1198;139146;-63
2021/08/22 23:06:59;;;;;;;11.50;7.30;;;;;;;21.12;61.06;99016.45;234195;1198;139167;-62
2021/08/22 23:12:02;;;;;;;12.30;6.70;;;;;;;21.08;61.20;99023.23;234033;1199;138701;-63
2021/08/22 23:17:05;;;;;;;8.20;6.10;;;;;;;21.03;61.36;99017.27;234066;1199;139543;-63